sensor_id;sensor_type;location;lat;lon;timestamp;pressure;altitude;pressure_sealevel;temperature;humidity
23361;BME280;11852;50.082;18.554;2022-12-11T00:00:41;97391.5;;;1.2;86.46
23361;BME280;11852;50.082;18.554;2022-12-11T00:01:48;97385.5;;;1.22;86.31
23361;BME280;11852;50.082;18.554;2022-12-11T00:02:55;97384.0;;;1.24;86.36
23361;BME280;11852;50.082;18.554;2022-12-11T00:04:02;97381.0;;;1.21;86.46
23361;BME280;11852;50.082;18.554;2022-12-11T00:05:09;97379.0;;;1.11;86.53
23361;BME280;11852;50.082;18.554;2022-12-11T00:06:18;97378.5;;;1.13;86.49
23361;BME280;11852;50.082;18.554;2022-12-11T00:07:23;97379.0;;;1.18;86.5
23361;BME280;11852;50.082;18.554;2022-12-11T00:08:31;97379.5;;;1.18;86.51
23361;BME280;11852;50.082;18.554;2022-12-11T00:09:38;97374.5;;;1.03;86.96
23361;BME280;11852;50.082;18.554;2022-12-11T00:10:46;97373.5;;;1.08;86.68
23361;BME280;11852;50.082;18.554;2022-12-11T00:11:53;97367.51;;;1.2;86.38
23361;BME280;11852;50.082;18.554;2022-12-11T00:13:00;97364.5;;;1.06;86.82
23361;BME280;11852;50.082;18.554;2022-12-11T00:14:07;97360.5;;;1.02;86.74
23361;BME280;11852;50.082;18.554;2022-12-11T00:15:14;97358.5;;;1.13;86.51
23361;BME280;11852;50.082;18.554;2022-12-11T00:16:22;97351.5;;;1.13;86.65
23361;BME280;11852;50.082;18.554;2022-12-11T00:17:29;97348.5;;;1.06;86.74
23361;BME280;11852;50.082;18.554;2022-12-11T00:18:37;97349.0;;;1.03;86.76
23361;BME280;11852;50.082;18.554;2022-12-11T00:19:44;97346.0;;;1.0;86.83
23361;BME280;11852;50.082;18.554;2022-12-11T00:20:51;97349.0;;;1.12;86.57
23361;BME280;11852;50.082;18.554;2022-12-11T00:21:58;97350.5;;;1.2;86.54
23361;BME280;11852;50.082;18.554;2022-12-11T00:23:05;97351.0;;;1.27;86.32
23361;BME280;11852;50.082;18.554;2022-12-11T00:24:12;97353.5;;;1.23;86.46
23361;BME280;11852;50.082;18.554;2022-12-11T00:25:19;97352.5;;;1.02;86.91
23361;BME280;11852;50.082;18.554;2022-12-11T00:26:26;97351.0;;;1.04;86.63
23361;BME280;11852;50.082;18.554;2022-12-11T00:27:34;97355.5;;;1.02;86.96
23361;BME280;11852;50.082;18.554;2022-12-11T00:28:42;97354.5;;;1.07;86.72
23361;BME280;11852;50.082;18.554;2022-12-11T00:29:49;97354.0;;;1.18;86.46
23361;BME280;11852;50.082;18.554;2022-12-11T00:30:56;97353.5;;;1.23;86.39
23361;BME280;11852;50.082;18.554;2022-12-11T00:32:03;97351.0;;;1.11;86.74
23361;BME280;11852;50.082;18.554;2022-12-11T00:33:11;97353.5;;;1.18;86.43
23361;BME280;11852;50.082;18.554;2022-12-11T00:34:19;97351.0;;;1.22;86.4
23361;BME280;11852;50.082;18.554;2022-12-11T00:35:26;97351.0;;;1.21;86.47
23361;BME280;11852;50.082;18.554;2022-12-11T00:36:33;97352.5;;;1.2;86.38
23361;BME280;11852;50.082;18.554;2022-12-11T00:37:40;97349.5;;;1.15;86.57
23361;BME280;11852;50.082;18.554;2022-12-11T00:38:47;97349.0;;;1.1;86.71
23361;BME280;11852;50.082;18.554;2022-12-11T00:39:55;97349.5;;;1.11;86.6
23361;BME280;11852;50.082;18.554;2022-12-11T00:41:02;97347.5;;;1.06;86.76
23361;BME280;11852;50.082;18.554;2022-12-11T00:42:09;97349.0;;;1.16;86.54
23361;BME280;11852;50.082;18.554;2022-12-11T00:43:16;97352.0;;;1.06;86.87
23361;BME280;11852;50.082;18.554;2022-12-11T00:44:24;97350.0;;;0.83;87.46
23361;BME280;11852;50.082;18.554;2022-12-11T00:45:34;97352.0;;;0.78;87.62
23361;BME280;11852;50.082;18.554;2022-12-11T00:46:38;97351.0;;;0.92;87.13
23361;BME280;11852;50.082;18.554;2022-12-11T00:47:46;97351.0;;;0.84;87.49
23361;BME280;11852;50.082;18.554;2022-12-11T00:48:53;97350.0;;;0.93;87.18
23361;BME280;11852;50.082;18.554;2022-12-11T00:50:01;97350.0;;;0.85;87.51
23361;BME280;11852;50.082;18.554;2022-12-11T00:51:09;97354.5;;;0.96;87.16
23361;BME280;11852;50.082;18.554;2022-12-11T00:52:16;97352.0;;;0.93;87.38
23361;BME280;11852;50.082;18.554;2022-12-11T00:53:22;97355.0;;;0.94;87.22
23361;BME280;11852;50.082;18.554;2022-12-11T00:54:31;97353.5;;;0.97;87.05
23361;BME280;11852;50.082;18.554;2022-12-11T00:55:38;97357.5;;;1.04;86.92
23361;BME280;11852;50.082;18.554;2022-12-11T00:56:45;97357.5;;;1.11;86.72
23361;BME280;11852;50.082;18.554;2022-12-11T00:57:52;97356.5;;;1.05;86.92
23361;BME280;11852;50.082;18.554;2022-12-11T00:58:59;97363.0;;;1.04;86.92
23361;BME280;11852;50.082;18.554;2022-12-11T01:00:06;97361.0;;;0.95;87.04
23361;BME280;11852;50.082;18.554;2022-12-11T01:01:16;97354.5;;;0.84;87.24
23361;BME280;11852;50.082;18.554;2022-12-11T01:02:22;97356.0;;;0.94;87.0
23361;BME280;11852;50.082;18.554;2022-12-11T01:03:29;97356.0;;;0.94;87.08
23361;BME280;11852;50.082;18.554;2022-12-11T01:04:36;97355.5;;;0.82;87.38
23361;BME280;11852;50.082;18.554;2022-12-11T01:05:52;97353.5;;;0.86;87.26
23361;BME280;11852;50.082;18.554;2022-12-11T01:06:59;97354.0;;;0.98;86.94
23361;BME280;11852;50.082;18.554;2022-12-11T01:08:06;97348.0;;;0.99;86.96
23361;BME280;11852;50.082;18.554;2022-12-11T01:09:18;97348.5;;;0.98;87.03
23361;BME280;11852;50.082;18.554;2022-12-11T01:10:25;97344.5;;;1.0;86.99
23361;BME280;11852;50.082;18.554;2022-12-11T01:11:32;97347.5;;;1.06;86.87
23361;BME280;11852;50.082;18.554;2022-12-11T01:12:40;97347.0;;;1.06;86.92
23361;BME280;11852;50.082;18.554;2022-12-11T01:13:47;97349.0;;;1.11;86.74
23361;BME280;11852;50.082;18.554;2022-12-11T01:14:54;97347.0;;;1.08;86.76
23361;BME280;11852;50.082;18.554;2022-12-11T01:16:14;97349.0;;;0.99;86.95
23361;BME280;11852;50.082;18.554;2022-12-11T01:17:11;97343.5;;;0.98;86.87
23361;BME280;11852;50.082;18.554;2022-12-11T01:18:19;97343.5;;;0.94;87.08
23361;BME280;11852;50.082;18.554;2022-12-11T01:19:26;97343.5;;;1.02;86.82
23361;BME280;11852;50.082;18.554;2022-12-11T01:20:33;97339.5;;;0.87;87.31
23361;BME280;11852;50.082;18.554;2022-12-11T01:21:40;97337.0;;;0.94;86.93
23361;BME280;11852;50.082;18.554;2022-12-11T01:22:47;97339.0;;;0.99;86.88
23361;BME280;11852;50.082;18.554;2022-12-11T01:23:54;97335.0;;;1.0;86.87
23361;BME280;11852;50.082;18.554;2022-12-11T01:25:01;97338.0;;;1.04;86.9
23361;BME280;11852;50.082;18.554;2022-12-11T01:26:12;97338.0;;;1.08;86.76
23361;BME280;11852;50.082;18.554;2022-12-11T01:27:19;97341.0;;;1.11;86.7
23361;BME280;11852;50.082;18.554;2022-12-11T01:28:26;97337.5;;;1.05;86.85
23361;BME280;11852;50.082;18.554;2022-12-11T01:29:33;97339.0;;;1.09;86.63
23361;BME280;11852;50.082;18.554;2022-12-11T01:30:41;97337.0;;;1.13;86.61
23361;BME280;11852;50.082;18.554;2022-12-11T01:31:48;97339.5;;;1.12;86.56
23361;BME280;11852;50.082;18.554;2022-12-11T01:32:55;97340.5;;;1.07;86.68
23361;BME280;11852;50.082;18.554;2022-12-11T01:34:02;97341.5;;;0.97;86.82
23361;BME280;11852;50.082;18.554;2022-12-11T01:35:09;97341.0;;;0.88;86.97
23361;BME280;11852;50.082;18.554;2022-12-11T01:36:17;97340.0;;;0.92;86.9
23361;BME280;11852;50.082;18.554;2022-12-11T01:37:23;97343.0;;;0.97;86.82
23361;BME280;11852;50.082;18.554;2022-12-11T01:38:30;97340.5;;;0.85;87.04
23361;BME280;11852;50.082;18.554;2022-12-11T01:39:37;97344.0;;;0.95;86.78
23361;BME280;11852;50.082;18.554;2022-12-11T01:40:48;97342.0;;;0.79;87.24
23361;BME280;11852;50.082;18.554;2022-12-11T01:41:55;97343.0;;;0.96;86.89
23361;BME280;11852;50.082;18.554;2022-12-11T01:43:02;97339.0;;;0.91;86.97
23361;BME280;11852;50.082;18.554;2022-12-11T01:45:28;97339.5;;;1.01;86.78
23361;BME280;11852;50.082;18.554;2022-12-11T01:46:34;97339.0;;;0.97;86.94
23361;BME280;11852;50.082;18.554;2022-12-11T01:47:38;97339.5;;;0.8;87.23
23361;BME280;11852;50.082;18.554;2022-12-11T01:48:46;97341.0;;;0.86;87.04
23361;BME280;11852;50.082;18.554;2022-12-11T01:49:53;97344.49;;;0.94;86.82
23361;BME280;11852;50.082;18.554;2022-12-11T01:51:02;97341.5;;;0.9;86.9
23361;BME280;11852;50.082;18.554;2022-12-11T01:52:11;97343.5;;;0.83;87.13
23361;BME280;11852;50.082;18.554;2022-12-11T01:53:19;97338.0;;;0.91;86.81
23361;BME280;11852;50.082;18.554;2022-12-11T01:54:24;97344.49;;;0.96;86.88
23361;BME280;11852;50.082;18.554;2022-12-11T01:55:31;97344.0;;;0.79;87.2
23361;BME280;11852;50.082;18.554;2022-12-11T01:56:38;97342.51;;;0.73;87.31
23361;BME280;11852;50.082;18.554;2022-12-11T01:57:46;97349.0;;;0.72;87.22
23361;BME280;11852;50.082;18.554;2022-12-11T01:58:53;97344.49;;;0.56;87.69
23361;BME280;11852;50.082;18.554;2022-12-11T01:59:59;97343.5;;;0.8;87.07
23361;BME280;11852;50.082;18.554;2022-12-11T02:01:07;97341.0;;;0.83;87.08
23361;BME280;11852;50.082;18.554;2022-12-11T02:02:17;97338.0;;;0.84;87.04
23361;BME280;11852;50.082;18.554;2022-12-11T02:03:21;97336.0;;;0.88;86.93
23361;BME280;11852;50.082;18.554;2022-12-11T02:04:28;97335.0;;;0.95;86.81
23361;BME280;11852;50.082;18.554;2022-12-11T02:05:35;97332.99;;;0.96;86.82
23361;BME280;11852;50.082;18.554;2022-12-11T02:06:47;97331.5;;;0.96;86.76
23361;BME280;11852;50.082;18.554;2022-12-11T02:07:54;97333.0;;;0.72;87.21
23361;BME280;11852;50.082;18.554;2022-12-11T02:09:00;97331.99;;;0.86;86.85
23361;BME280;11852;50.082;18.554;2022-12-11T02:10:08;97332.99;;;0.56;87.85
23361;BME280;11852;50.082;18.554;2022-12-11T02:11:17;97333.5;;;0.73;87.13
23361;BME280;11852;50.082;18.554;2022-12-11T02:12:24;97333.5;;;0.76;87.17
23361;BME280;11852;50.082;18.554;2022-12-11T02:13:34;97333.5;;;0.75;87.32
23361;BME280;11852;50.082;18.554;2022-12-11T02:17:21;97337.5;;;0.77;87.15
23361;BME280;11852;50.082;18.554;2022-12-11T02:20:56;97340.0;;;0.76;87.22
23361;BME280;11852;50.082;18.554;2022-12-11T02:22:00;97338.0;;;0.76;87.27
23361;BME280;11852;50.082;18.554;2022-12-11T02:29:19;97335.0;;;0.78;87.17
23361;BME280;11852;50.082;18.554;2022-12-11T02:30:24;97334.5;;;0.76;87.31
23361;BME280;11852;50.082;18.554;2022-12-11T02:32:54;97337.0;;;0.79;87.08
23361;BME280;11852;50.082;18.554;2022-12-11T02:35:21;97334.0;;;0.63;87.6
23361;BME280;11852;50.082;18.554;2022-12-11T02:36:27;97332.99;;;0.71;87.13
23361;BME280;11852;50.082;18.554;2022-12-11T02:37:33;97332.49;;;0.8;86.9
23361;BME280;11852;50.082;18.554;2022-12-11T02:38:40;97332.49;;;0.74;87.37
23361;BME280;11852;50.082;18.554;2022-12-11T02:39:47;97331.5;;;0.69;87.19
23361;BME280;11852;50.082;18.554;2022-12-11T02:40:54;97331.0;;;0.64;87.38
23361;BME280;11852;50.082;18.554;2022-12-11T02:42:01;97327.0;;;0.73;87.16
23361;BME280;11852;50.082;18.554;2022-12-11T02:43:10;97324.5;;;0.64;87.4
23361;BME280;11852;50.082;18.554;2022-12-11T02:44:21;97321.5;;;0.76;87.06
23361;BME280;11852;50.082;18.554;2022-12-11T02:45:26;97322.0;;;0.65;87.56
23361;BME280;11852;50.082;18.554;2022-12-11T02:46:33;97318.5;;;0.73;87.04
23361;BME280;11852;50.082;18.554;2022-12-11T02:47:41;97313.0;;;0.66;87.31
23361;BME280;11852;50.082;18.554;2022-12-11T02:48:48;97311.5;;;0.65;87.21
23361;BME280;11852;50.082;18.554;2022-12-11T02:49:55;97310.5;;;0.73;87.0
23361;BME280;11852;50.082;18.554;2022-12-11T02:51:02;97314.5;;;0.69;87.18
23361;BME280;11852;50.082;18.554;2022-12-11T02:52:10;97313.0;;;0.7;87.04
23361;BME280;11852;50.082;18.554;2022-12-11T02:53:18;97314.5;;;0.7;87.04
23361;BME280;11852;50.082;18.554;2022-12-11T02:54:25;97316.0;;;0.69;87.15
23361;BME280;11852;50.082;18.554;2022-12-11T02:55:31;97318.5;;;0.63;87.31
23361;BME280;11852;50.082;18.554;2022-12-11T02:56:41;97317.51;;;0.61;87.21
23361;BME280;11852;50.082;18.554;2022-12-11T02:59:03;97311.5;;;0.67;87.42
23361;BME280;11852;50.082;18.554;2022-12-11T03:00:08;97309.0;;;0.69;87.13
23361;BME280;11852;50.082;18.554;2022-12-11T03:01:15;97304.0;;;0.8;86.83
23361;BME280;11852;50.082;18.554;2022-12-11T03:02:22;97303.0;;;0.67;87.13
23361;BME280;11852;50.082;18.554;2022-12-11T03:03:29;97303.5;;;0.68;87.09
23361;BME280;11852;50.082;18.554;2022-12-11T03:04:36;97305.0;;;0.53;87.65
23361;BME280;11852;50.082;18.554;2022-12-11T03:05:43;97306.5;;;0.47;87.77
23361;BME280;11852;50.082;18.554;2022-12-11T03:06:52;97309.5;;;0.57;87.44
23361;BME280;11852;50.082;18.554;2022-12-11T03:07:57;97308.0;;;0.58;87.42
23361;BME280;11852;50.082;18.554;2022-12-11T03:09:05;97311.0;;;0.61;87.4
23361;BME280;11852;50.082;18.554;2022-12-11T03:10:12;97312.5;;;0.58;87.51
23361;BME280;11852;50.082;18.554;2022-12-11T03:11:19;97312.5;;;0.46;87.71
23361;BME280;11852;50.082;18.554;2022-12-11T03:12:28;97315.0;;;0.49;87.63
23361;BME280;11852;50.082;18.554;2022-12-11T03:13:33;97313.5;;;0.6;87.37
23361;BME280;11852;50.082;18.554;2022-12-11T03:14:41;97314.5;;;0.72;87.13
23361;BME280;11852;50.082;18.554;2022-12-11T03:15:59;97312.0;;;0.66;87.51
23361;BME280;11852;50.082;18.554;2022-12-11T03:20:20;97317.5;;;0.77;86.97
23361;BME280;11852;50.082;18.554;2022-12-11T03:20:45;97321.0;;;0.73;87.19
23361;BME280;11852;50.082;18.554;2022-12-11T03:21:57;97317.5;;;0.69;87.22
23361;BME280;11852;50.082;18.554;2022-12-11T03:24:19;97318.51;;;0.67;87.19
23361;BME280;11852;50.082;18.554;2022-12-11T03:25:29;97316.5;;;0.59;87.4
23361;BME280;11852;50.082;18.554;2022-12-11T03:26:35;97318.0;;;0.68;87.17
23361;BME280;11852;50.082;18.554;2022-12-11T03:29:06;97313.5;;;0.72;87.17
23361;BME280;11852;50.082;18.554;2022-12-11T03:30:04;97312.5;;;0.69;87.13
23361;BME280;11852;50.082;18.554;2022-12-11T03:31:12;97310.5;;;0.73;87.1
23361;BME280;11852;50.082;18.554;2022-12-11T03:32:19;97309.5;;;0.73;87.08
23361;BME280;11852;50.082;18.554;2022-12-11T03:34:41;97306.5;;;0.64;87.22
23361;BME280;11852;50.082;18.554;2022-12-11T03:35:48;97305.0;;;0.57;87.57
23361;BME280;11852;50.082;18.554;2022-12-11T03:36:54;97303.0;;;0.59;87.38
23361;BME280;11852;50.082;18.554;2022-12-11T03:38:06;97305.5;;;0.63;87.32
23361;BME280;11852;50.082;18.554;2022-12-11T03:39:12;97307.0;;;0.65;87.29
23361;BME280;11852;50.082;18.554;2022-12-11T03:40:18;97308.0;;;0.66;87.28
23361;BME280;11852;50.082;18.554;2022-12-11T03:41:25;97310.0;;;0.63;87.49
23361;BME280;11852;50.082;18.554;2022-12-11T03:42:33;97310.0;;;0.64;87.26
23361;BME280;11852;50.082;18.554;2022-12-11T03:43:40;97309.0;;;0.79;86.96
23361;BME280;11852;50.082;18.554;2022-12-11T03:44:47;97309.5;;;0.79;87.14
23361;BME280;11852;50.082;18.554;2022-12-11T03:45:54;97307.0;;;0.78;87.06
23361;BME280;11852;50.082;18.554;2022-12-11T03:47:02;97307.99;;;0.67;87.26
23361;BME280;11852;50.082;18.554;2022-12-11T03:48:08;97305.5;;;0.63;87.27
23361;BME280;11852;50.082;18.554;2022-12-11T03:49:16;97303.0;;;0.39;87.81
23361;BME280;11852;50.082;18.554;2022-12-11T03:50:22;97301.0;;;0.42;87.74
23361;BME280;11852;50.082;18.554;2022-12-11T03:51:30;97306.0;;;0.46;87.68
23361;BME280;11852;50.082;18.554;2022-12-11T03:52:38;97300.0;;;0.44;87.65
23361;BME280;11852;50.082;18.554;2022-12-11T03:53:44;97298.5;;;0.46;87.67
23361;BME280;11852;50.082;18.554;2022-12-11T03:54:51;97298.0;;;0.46;87.59
23361;BME280;11852;50.082;18.554;2022-12-11T03:55:58;97296.0;;;0.47;87.54
23361;BME280;11852;50.082;18.554;2022-12-11T03:57:05;97298.5;;;0.38;87.82
23361;BME280;11852;50.082;18.554;2022-12-11T03:58:12;97294.0;;;0.46;87.57
23361;BME280;11852;50.082;18.554;2022-12-11T03:59:19;97302.5;;;0.32;88.0
23361;BME280;11852;50.082;18.554;2022-12-11T04:00:27;97295.49;;;0.38;87.75
23361;BME280;11852;50.082;18.554;2022-12-11T04:01:34;97296.0;;;0.39;87.81
23361;BME280;11852;50.082;18.554;2022-12-11T04:02:41;97292.5;;;0.55;87.43
23361;BME280;11852;50.082;18.554;2022-12-11T04:03:48;97296.5;;;0.6;87.4
23361;BME280;11852;50.082;18.554;2022-12-11T04:04:55;97297.5;;;0.51;87.6
23361;BME280;11852;50.082;18.554;2022-12-11T04:06:02;97295.49;;;0.56;87.31
23361;BME280;11852;50.082;18.554;2022-12-11T04:07:09;97293.0;;;0.54;87.34
23361;BME280;11852;50.082;18.554;2022-12-11T04:08:17;97294.5;;;0.6;87.24
23361;BME280;11852;50.082;18.554;2022-12-11T04:09:24;97292.5;;;0.67;87.12
23361;BME280;11852;50.082;18.554;2022-12-11T04:10:31;97290.0;;;0.64;87.19
23361;BME280;11852;50.082;18.554;2022-12-11T04:11:38;97288.5;;;0.69;87.07
23361;BME280;11852;50.082;18.554;2022-12-11T04:12:45;97287.5;;;0.63;87.22
23361;BME280;11852;50.082;18.554;2022-12-11T04:14:02;97287.0;;;0.71;86.94
23361;BME280;11852;50.082;18.554;2022-12-11T04:15:09;97284.5;;;0.68;87.01
23361;BME280;11852;50.082;18.554;2022-12-11T04:16:16;97286.0;;;0.65;87.01
23361;BME280;11852;50.082;18.554;2022-12-11T04:17:32;97288.0;;;0.66;86.99
23361;BME280;11852;50.082;18.554;2022-12-11T04:18:43;97286.0;;;0.58;87.18
23361;BME280;11852;50.082;18.554;2022-12-11T04:19:56;97285.5;;;0.41;87.72
23361;BME280;11852;50.082;18.554;2022-12-11T04:21:08;97283.0;;;0.46;87.44
23361;BME280;11852;50.082;18.554;2022-12-11T04:22:20;97282.49;;;0.39;87.82
23361;BME280;11852;50.082;18.554;2022-12-11T04:23:32;97279.0;;;0.37;87.66
23361;BME280;11852;50.082;18.554;2022-12-11T04:24:39;97279.5;;;0.46;87.38
23361;BME280;11852;50.082;18.554;2022-12-11T04:25:46;97279.5;;;0.53;87.38
23361;BME280;11852;50.082;18.554;2022-12-11T04:26:53;97278.5;;;0.53;87.51
23361;BME280;11852;50.082;18.554;2022-12-11T04:28:00;97275.5;;;0.53;87.43
23361;BME280;11852;50.082;18.554;2022-12-11T04:29:08;97272.0;;;0.6;87.22
23361;BME280;11852;50.082;18.554;2022-12-11T04:30:21;97272.5;;;0.57;87.24
23361;BME280;11852;50.082;18.554;2022-12-11T04:31:25;97272.0;;;0.43;87.51
23361;BME280;11852;50.082;18.554;2022-12-11T04:32:32;97268.5;;;0.41;87.46
23361;BME280;11852;50.082;18.554;2022-12-11T04:33:39;97270.0;;;0.51;87.3
23361;BME280;11852;50.082;18.554;2022-12-11T04:34:46;97271.5;;;0.56;87.24
23361;BME280;11852;50.082;18.554;2022-12-11T04:35:56;97266.5;;;0.52;87.3
23361;BME280;11852;50.082;18.554;2022-12-11T04:37:01;97267.0;;;0.59;87.02
23361;BME280;11852;50.082;18.554;2022-12-11T04:38:08;97269.5;;;0.65;86.99
23361;BME280;11852;50.082;18.554;2022-12-11T04:39:15;97267.0;;;0.49;87.37
23361;BME280;11852;50.082;18.554;2022-12-11T04:40:22;97267.01;;;0.51;87.17
23361;BME280;11852;50.082;18.554;2022-12-11T04:41:29;97272.0;;;0.49;87.28
23361;BME280;11852;50.082;18.554;2022-12-11T04:42:36;97268.0;;;0.5;87.31
23361;BME280;11852;50.082;18.554;2022-12-11T04:43:46;97268.0;;;0.54;87.08
23361;BME280;11852;50.082;18.554;2022-12-11T04:44:54;97272.5;;;0.33;87.56
23361;BME280;11852;50.082;18.554;2022-12-11T04:47:14;97263.5;;;0.32;87.61
23361;BME280;11852;50.082;18.554;2022-12-11T04:48:21;97272.5;;;0.43;87.29
23361;BME280;11852;50.082;18.554;2022-12-11T04:49:28;97267.5;;;0.42;87.39
23361;BME280;11852;50.082;18.554;2022-12-11T04:50:35;97266.0;;;0.48;87.24
23361;BME280;11852;50.082;18.554;2022-12-11T04:51:42;97272.5;;;0.49;87.31
23361;BME280;11852;50.082;18.554;2022-12-11T04:52:52;97275.0;;;0.44;87.19
23361;BME280;11852;50.082;18.554;2022-12-11T04:53:57;97275.5;;;0.31;87.49
23361;BME280;11852;50.082;18.554;2022-12-11T04:55:04;97276.5;;;0.44;87.08
23361;BME280;11852;50.082;18.554;2022-12-11T04:56:12;97275.0;;;0.08;88.34
23361;BME280;11852;50.082;18.554;2022-12-11T04:57:18;97277.0;;;0.03;88.42
23361;BME280;11852;50.082;18.554;2022-12-11T04:58:26;97276.5;;;0.19;87.77
23361;BME280;11852;50.082;18.554;2022-12-11T04:59:33;97277.5;;;0.22;87.72
23361;BME280;11852;50.082;18.554;2022-12-11T05:00:40;97279.5;;;0.31;87.53
23361;BME280;11852;50.082;18.554;2022-12-11T05:01:47;97279.5;;;0.35;87.43
23361;BME280;11852;50.082;18.554;2022-12-11T05:02:54;97274.5;;;0.34;87.51
23361;BME280;11852;50.082;18.554;2022-12-11T05:04:01;97272.0;;;0.2;87.61
23361;BME280;11852;50.082;18.554;2022-12-11T05:05:09;97271.0;;;0.13;87.91
23361;BME280;11852;50.082;18.554;2022-12-11T05:06:15;97269.0;;;0.23;87.57
23361;BME280;11852;50.082;18.554;2022-12-11T05:07:23;97273.0;;;0.33;87.33
23361;BME280;11852;50.082;18.554;2022-12-11T05:08:30;97273.0;;;0.38;87.4
23361;BME280;11852;50.082;18.554;2022-12-11T05:09:37;97271.5;;;0.35;87.38
23361;BME280;11852;50.082;18.554;2022-12-11T05:10:44;97272.0;;;0.12;87.83
23361;BME280;11852;50.082;18.554;2022-12-11T05:11:51;97273.0;;;0.08;87.72
23361;BME280;11852;50.082;18.554;2022-12-11T05:12:58;97276.5;;;0.06;87.68
23361;BME280;11852;50.082;18.554;2022-12-11T05:14:05;97273.5;;;0.13;87.6
23361;BME280;11852;50.082;18.554;2022-12-11T05:15:12;97277.0;;;0.14;87.63
23361;BME280;11852;50.082;18.554;2022-12-11T05:16:19;97271.5;;;0.2;87.6
23361;BME280;11852;50.082;18.554;2022-12-11T05:17:27;97272.0;;;0.21;87.53
23361;BME280;11852;50.082;18.554;2022-12-11T05:18:34;97273.5;;;0.22;87.43
23361;BME280;11852;50.082;18.554;2022-12-11T05:19:41;97270.5;;;0.12;87.81
23361;BME280;11852;50.082;18.554;2022-12-11T05:20:54;97272.5;;;0.22;87.26
23361;BME280;11852;50.082;18.554;2022-12-11T05:22:01;97268.0;;;0.03;87.87
23361;BME280;11852;50.082;18.554;2022-12-11T05:23:08;97267.51;;;0.15;87.65
23361;BME280;11852;50.082;18.554;2022-12-11T05:24:15;97269.49;;;-0.05;87.94
23361;BME280;11852;50.082;18.554;2022-12-11T05:25:22;97265.5;;;0.16;87.3
23361;BME280;11852;50.082;18.554;2022-12-11T05:26:30;97264.5;;;0.14;87.53
23361;BME280;11852;50.082;18.554;2022-12-11T05:27:37;97267.0;;;0.19;87.37
23361;BME280;11852;50.082;18.554;2022-12-11T05:28:44;97263.5;;;0.25;87.3
23361;BME280;11852;50.082;18.554;2022-12-11T05:29:51;97265.0;;;0.19;87.46
23361;BME280;11852;50.082;18.554;2022-12-11T05:31:00;97263.5;;;0.11;87.74
23361;BME280;11852;50.082;18.554;2022-12-11T05:32:05;97263.5;;;0.01;87.74
23361;BME280;11852;50.082;18.554;2022-12-11T05:33:13;97266.5;;;0.03;87.62
23361;BME280;11852;50.082;18.554;2022-12-11T05:34:20;97264.5;;;0.18;87.29
23361;BME280;11852;50.082;18.554;2022-12-11T05:35:27;97265.5;;;0.2;87.42
23361;BME280;11852;50.082;18.554;2022-12-11T05:36:34;97267.01;;;0.21;87.24
23361;BME280;11852;50.082;18.554;2022-12-11T05:37:41;97264.5;;;0.23;87.13
23361;BME280;11852;50.082;18.554;2022-12-11T05:38:48;97265.5;;;0.24;87.11
23361;BME280;11852;50.082;18.554;2022-12-11T05:39:55;97268.0;;;0.27;87.13
23361;BME280;11852;50.082;18.554;2022-12-11T05:41:03;97269.5;;;0.32;86.93
23361;BME280;11852;50.082;18.554;2022-12-11T05:42:10;97267.5;;;0.19;87.22
23361;BME280;11852;50.082;18.554;2022-12-11T05:43:17;97267.0;;;0.18;87.19
23361;BME280;11852;50.082;18.554;2022-12-11T05:44:24;97269.0;;;0.13;87.24
23361;BME280;11852;50.082;18.554;2022-12-11T05:45:31;97271.0;;;0.19;87.01
23361;BME280;11852;50.082;18.554;2022-12-11T05:46:38;97271.0;;;0.26;86.82
23361;BME280;11852;50.082;18.554;2022-12-11T05:47:45;97269.5;;;0.25;86.87
23361;BME280;11852;50.082;18.554;2022-12-11T05:48:53;97274.0;;;0.29;86.81
23361;BME280;11852;50.082;18.554;2022-12-11T05:50:00;97273.0;;;0.14;87.2
23361;BME280;11852;50.082;18.554;2022-12-11T05:51:07;97274.5;;;0.21;86.9
23361;BME280;11852;50.082;18.554;2022-12-11T05:52:14;97271.5;;;0.15;87.32
23361;BME280;11852;50.082;18.554;2022-12-11T05:53:21;97275.5;;;0.14;87.15
23361;BME280;11852;50.082;18.554;2022-12-11T05:54:29;97276.0;;;0.22;86.96
23361;BME280;11852;50.082;18.554;2022-12-11T05:55:36;97277.0;;;0.23;86.95
23361;BME280;11852;50.082;18.554;2022-12-11T05:56:43;97278.0;;;0.21;87.17
23361;BME280;11852;50.082;18.554;2022-12-11T05:57:50;97284.5;;;0.12;87.13
23361;BME280;11852;50.082;18.554;2022-12-11T05:58:59;97284.5;;;0.04;87.34
23361;BME280;11852;50.082;18.554;2022-12-11T06:00:06;97282.0;;;0.07;87.25
23361;BME280;11852;50.082;18.554;2022-12-11T06:01:14;97284.0;;;0.07;87.26
23361;BME280;11852;50.082;18.554;2022-12-11T06:02:20;97282.0;;;0.13;87.18
23361;BME280;11852;50.082;18.554;2022-12-11T06:03:27;97285.5;;;-0.04;87.63
23361;BME280;11852;50.082;18.554;2022-12-11T06:04:35;97280.5;;;-0.04;87.42
23361;BME280;11852;50.082;18.554;2022-12-11T06:05:42;97283.0;;;0.06;87.22
23361;BME280;11852;50.082;18.554;2022-12-11T06:06:49;97277.0;;;0.06;87.15
23361;BME280;11852;50.082;18.554;2022-12-11T06:07:56;97275.0;;;-0.07;87.43
23361;BME280;11852;50.082;18.554;2022-12-11T06:09:04;97280.5;;;-0.06;87.29
23361;BME280;11852;50.082;18.554;2022-12-11T06:10:11;97279.5;;;0.0;87.13
23361;BME280;11852;50.082;18.554;2022-12-11T06:11:18;97285.0;;;0.06;87.06
23361;BME280;11852;50.082;18.554;2022-12-11T06:12:25;97282.99;;;-0.01;87.18
23361;BME280;11852;50.082;18.554;2022-12-11T06:13:33;97291.0;;;-0.06;87.24
23361;BME280;11852;50.082;18.554;2022-12-11T06:14:40;97289.0;;;-0.05;87.12
23361;BME280;11852;50.082;18.554;2022-12-11T06:15:47;97286.0;;;-0.01;87.05
23361;BME280;11852;50.082;18.554;2022-12-11T06:16:54;97288.0;;;-0.14;87.23
23361;BME280;11852;50.082;18.554;2022-12-11T06:18:01;97281.0;;;-0.05;86.99
23361;BME280;11852;50.082;18.554;2022-12-11T06:19:13;97279.0;;;0.03;86.9
23361;BME280;11852;50.082;18.554;2022-12-11T06:20:20;97279.0;;;0.07;86.93
23361;BME280;11852;50.082;18.554;2022-12-11T06:21:28;97282.0;;;0.12;86.8
23361;BME280;11852;50.082;18.554;2022-12-11T06:22:35;97288.5;;;0.02;86.99
23361;BME280;11852;50.082;18.554;2022-12-11T06:23:42;97287.0;;;0.05;86.83
23361;BME280;11852;50.082;18.554;2022-12-11T06:24:49;97290.0;;;0.14;86.65
23361;BME280;11852;50.082;18.554;2022-12-11T06:25:56;97288.0;;;-0.09;87.31
23361;BME280;11852;50.082;18.554;2022-12-11T06:27:03;97284.5;;;0.02;86.88